Nearby METAR Reports

 

KSJC - San Jose, California, USA
Distance from station: NE 9mi, 14km
Updated: Fri, 15-Jan-2021 4:53pm MST
Mostly cloudy
Mostly cloudy
 Wind from N
Wind: N 6 mph , 9 km/h
Temperature: 66°F , 19°C
Dew Point: 46°F , 8°C
Humidity: 49%
Barometer: 30.23 inHg , 1023.7 hPa
Clouds: Mostly cloudy
Visibility: 10 miles , 16 km
Cloud details: Few Clouds 7500 ft
Partly cloudy 11000 ft
Mostly cloudy 16000 ft
2021/01/15 23:53 KSJC 152353Z 35005KT 10SM FEW075 SCT110 BKN160 19/08 A3023 RMK AO2 SLP237 T01890078 10206 20128 56015
KNUQ - Moffett Nas/Mtn, California, USA
Distance from station: N 9mi, 14km
Updated: Fri, 15-Jan-2021 4:55pm MST
Clear
Clear
 Wind from NW
Wind: NW 6 mph , 9 km/h
Temperature: 64°F , 18°C
Dew Point: 50°F , 10°C
Humidity: 60%
Barometer: 30.23 inHg , 1023.7 hPa
Clouds: Clear
Visibility: 10 miles , 16 km
2021/01/15 23:55 KNUQ 152355Z AUTO 32005KT 10SM CLR 18/10 A3023 RMK AO2
 
KPAO - Palo Alto, California, USA
Distance from station: NNW 14mi, 23km
Updated: Fri, 15-Jan-2021 4:47pm MST
Partly cloudy
Partly cloudy
 Wind from NW
Wind: NW 5 mph , 7 km/h
Temperature: 61°F , 16°C
Dew Point: 50°F , 10°C
Humidity: 68%
Barometer: 30.24 inHg , 1024 hPa
Clouds: Partly cloudy
Visibility: 10 miles , 16 km
Cloud details: Partly cloudy 12000 ft
2021/01/15 23:47 KPAO 152347Z 32004KT 10SM SCT120 16/10 A3024
KRHV - San Jose/Reid, California, USA
Distance from station: ENE 12mi, 19km
Updated: Fri, 15-Jan-2021 3:50pm MST
NOT Current
Partly cloudy
Partly cloudy
 Wind from calm
Wind: Calm
Temperature: 68°F , 20°C
Dew Point: 48°F , 9°C
Humidity: 49%
Barometer: 30.25 inHg , 1024.4 hPa
Clouds: Partly cloudy
Visibility: 10 miles , 16 km
Cloud details: Partly cloudy 11000 ft
2021/01/15 22:50 KRHV 152250Z 00000KT 10SM SCT110 20/09 A3025
 
KOAK - Oakland, California, USA
Distance from station: NNW 31mi, 50km
Updated: Fri, 15-Jan-2021 4:53pm MST
Partly cloudy
Partly cloudy
 Wind from WSW
Wind: WSW 3 mph , 6 km/h
Temperature: 63°F , 17°C
Dew Point: 52°F , 11°C
Humidity: 68%
Barometer: 30.24 inHg , 1024 hPa
Clouds: Partly cloudy
Visibility: 10 miles , 16 km
Cloud details: Few Clouds 2000 ft
Few Clouds 16000 ft
Partly cloudy 20000 ft
2021/01/15 23:53 KOAK 152353Z 25003KT 10SM FEW020 FEW160 SCT200 17/11 A3024 RMK AO2 SLP241 T01720106 10194 20139 56014
KSQL - San Carlos Airpo, California, USA
Distance from station: NW 21mi, 34km
Updated: Fri, 15-Jan-2021 4:47pm MST
Partly cloudy
Partly cloudy
 Wind from calm
Wind: Calm
Temperature: 66°F , 19°C
Dew Point: 48°F , 9°C
Humidity: 52%
Barometer: 30.25 inHg , 1024.4 hPa
Clouds: Partly cloudy
Visibility: 10 miles , 16 km
Cloud details: Partly cloudy 20000 ft
2021/01/15 23:47 KSQL 152347Z 00000KT 10SM SCT200 19/09 A3025
 
KSFO - San Francisco, California, USA
Distance from station: NW 30mi, 49km
Updated: Fri, 15-Jan-2021 4:56pm MST
Mostly cloudy
Mostly cloudy
 Wind from E
Wind: E 3 mph , 6 km/h
Temperature: 63°F , 17°C
Dew Point: 50°F , 10°C
Humidity: 64%
Barometer: 30.24 inHg , 1024 hPa
Clouds: Mostly cloudy
Visibility: 10 miles , 16 km
Cloud details: Partly cloudy 18000 ft
Mostly cloudy 20000 ft
2021/01/15 23:56 KSFO 152356Z 09003KT 10SM SCT180 BKN200 17/10 A3024 RMK AO2 SLP239 T01670100 10172 20128 56013
KE16 - San Martin, California, USA
Distance from station: ESE 27mi, 43km
Updated: Fri, 15-Jan-2021 4:55pm MST
Clear
Clear
 Wind from NNW
Wind: NNW 12 mph , 19 km/h, Gust: 20 mph , 31 km/h
Temperature: 68°F , 20°C
Dew Point: 46°F , 8°C
Humidity: 46%
Barometer: 30.24 inHg , 1024 hPa
Clouds: Clear
Visibility: 10 miles , 16 km
2021/01/15 23:55 KE16 152355Z AUTO 33010G17KT 10SM CLR 20/08 A3024 RMK AO2
 
KWVI - Watsonville, California, USA
Distance from station: SSE 27mi, 44km
Updated: Fri, 15-Jan-2021 4:53pm MST
Clear
Clear
 Wind from S
Wind: S 5 mph , 7 km/h
Temperature: 72°F , 22°C
Dew Point: 52°F , 11°C
Humidity: 50%
Barometer: 30.20 inHg , 1022.7 hPa
Clouds: Clear
Visibility: 10 miles , 16 km
2021/01/15 23:53 KWVI 152353Z AUTO 18004KT 10SM CLR 22/11 A3020 RMK AO2 SLP225 T02170106 10244 20161 55010
KHAF - Half Moon Bay, California, USA
Distance from station: WNW 31mi, 50km
Updated: Fri, 15-Jan-2021 4:55pm MST
Clear
Clear
 Wind from NNE
Wind: NNE 9 mph , 15 km/h
Temperature: 72°F , 22°C
Dew Point: 45°F , 7°C
Humidity: 38%
Barometer: 30.22 inHg , 1023.4 hPa
Clouds: Clear
Visibility: 10 miles , 16 km
2021/01/15 23:55 KHAF 152355Z AUTO 03008KT 10SM CLR 22/07 A3022 RMK AO2
 
KHWD - Hayward, California, USA
Distance from station: N 28mi, 44km
Updated: Fri, 15-Jan-2021 4:54pm MST
Clear
Clear
 Wind from W
Wind: W 6 mph , 9 km/h
Temperature: 64°F , 18°C
Dew Point: 48°F , 9°C
Humidity: 56%
Barometer: 30.24 inHg , 1024 hPa
Clouds: Clear
Visibility: 10 miles , 16 km
2021/01/15 23:54 KHWD 152354Z 28005KT 10SM CLR 18/09 A3024 RMK AO2 SLP249 T01780089 10189 20122 56012
KLVK - Livermore, California, USA
Distance from station: NNE 31mi, 51km
Updated: Fri, 15-Jan-2021 4:53pm MST
Clear
Clear
 Wind from ENE
Wind: ENE 12 mph , 19 km/h
Temperature: 64°F , 18°C
Dew Point: 46°F , 8°C
Humidity: 52%
Barometer: 30.25 inHg , 1024.4 hPa
Clouds: Clear
Visibility: 10 miles , 16 km
2021/01/15 23:53 KLVK 152353Z 06010KT 10SM CLR 18/08 A3025 RMK AO2 SLP241 T01830078 10206 20111 56009